createdAt,value
2018-03-02T06:39:20.186Z,96.1
2018-03-02T06:40:20.230Z,95.82
2018-03-02T06:41:20.522Z,96.2
2018-03-02T06:42:20.549Z,96.39
2018-03-02T06:43:20.554Z,95.91
2018-03-02T06:44:20.903Z,95.82
2018-03-02T06:45:20.941Z,95.54
2018-03-02T06:46:20.939Z,95.35
2018-03-02T06:47:21.202Z,95.63
2018-03-02T06:48:21.125Z,95.16
2018-03-02T06:49:21.129Z,94.97
2018-03-02T06:50:20.943Z,94.5
2018-03-02T06:51:20.912Z,95.07
2018-03-02T06:52:21.207Z,94.78
2018-03-02T06:53:21.530Z,94.5
2018-03-02T06:54:21.506Z,94.22
2018-03-02T06:55:21.591Z,94.22
2018-03-02T06:56:21.886Z,94.22
2018-03-02T06:57:22.240Z,93.94
2018-03-02T06:58:22.648Z,93.94
2018-03-02T06:59:22.778Z,93.94
2018-03-02T07:00:22.887Z,93.75
2018-03-02T07:01:22.698Z,93.75
2018-03-02T07:02:22.883Z,93.56
2018-03-02T07:03:22.904Z,93.65
2018-03-02T07:04:22.963Z,93.56
2018-03-02T07:05:23.355Z,93.37
2018-03-02T07:06:23.517Z,92.99
2018-03-02T07:07:23.514Z,92.71
2018-03-02T07:08:24.113Z,92.24
2018-03-02T07:09:24.363Z,92.57
2018-03-02T07:10:23.648Z,92.19
2018-03-02T07:11:23.594Z,92.19
2018-03-02T07:12:23.730Z,92.19
2018-03-02T07:13:23.661Z,92.1
2018-03-02T07:14:24.101Z,92
2018-03-02T07:15:24.124Z,91.63
2018-03-02T07:16:24.050Z,91.25
2018-03-02T07:17:24.189Z,91.63
2018-03-02T07:18:24.319Z,91.63
2018-03-02T07:19:24.559Z,91.44
2018-03-02T07:20:23.937Z,91.35
2018-03-02T07:21:24.076Z,90.88
2018-03-02T07:22:24.619Z,91.25
2018-03-02T07:23:24.637Z,90.69
2018-03-02T07:24:24.678Z,90.69
2018-03-02T07:25:24.678Z,90.41
2018-03-02T07:26:24.670Z,90.78
2018-03-02T07:27:24.792Z,90.22
2018-03-02T07:28:25.483Z,90.12
2018-03-02T07:29:25.613Z,90.22
2018-03-02T07:30:25.819Z,90.22
2018-03-02T07:31:25.812Z,89.84
2018-03-02T07:32:25.541Z,89.84
2018-03-02T07:33:25.815Z,89.56
2018-03-02T07:34:26.349Z,89.09
2018-03-02T07:35:25.844Z,89
2018-03-02T07:36:26.030Z,89.18
2018-03-02T07:37:26.459Z,88.05
2018-03-02T07:38:26.544Z,87.49
2018-03-02T07:39:26.196Z,86.21
2018-03-02T07:40:26.057Z,84.23
2018-03-02T07:41:26.440Z,82.44
2018-03-02T07:42:26.177Z,80.88
2018-03-02T07:43:26.609Z,79.85
2018-03-02T07:44:26.686Z,79.61
2018-03-02T07:45:27.086Z,79.33
2018-03-02T07:46:27.490Z,78.9
2018-03-02T07:47:27.281Z,78.81
2018-03-02T07:48:27.584Z,78.05
2018-03-02T07:49:27.787Z,77.77
2018-03-02T07:50:27.937Z,78.05
2018-03-02T07:51:27.930Z,78.02
2018-03-02T07:52:28.736Z,78.58
2018-03-02T07:53:28.485Z,78.24
2018-03-02T07:54:29.130Z,77.58
2018-03-02T07:55:29.298Z,77.39
2018-03-02T07:56:29.490Z,77.01
2018-03-02T07:57:29.561Z,75.98
2018-03-02T07:58:29.498Z,75.32
2018-03-02T07:59:29.284Z,75.04
2018-03-02T08:00:29.299Z,75.13
2018-03-02T08:01:29.286Z,74.32
2018-03-02T08:02:29.312Z,73.1
2018-03-02T08:03:29.610Z,72.06
2018-03-02T08:04:29.428Z,70.83
2018-03-02T08:05:29.795Z,70.26
2018-03-02T08:06:29.680Z,70.17
2018-03-02T08:07:29.896Z,70.79
2018-03-02T08:08:29.706Z,71.45
2018-03-02T08:09:29.950Z,71.68
2018-03-02T08:10:29.880Z,71.36
2018-03-02T08:11:30.021Z,72.87
2018-03-02T08:12:30.045Z,73.25
2018-03-02T08:13:30.411Z,74.1
2018-03-02T08:14:30.072Z,74.76
2018-03-02T08:15:29.755Z,74.85
2018-03-02T08:16:30.803Z,74.47
2018-03-02T08:17:30.849Z,74
2018-03-02T08:18:31.180Z,74.13
2018-03-02T08:19:30.682Z,73.1
2018-03-02T08:20:30.698Z,71.77
2018-03-02T08:21:30.854Z,70.3
2018-03-02T08:22:30.794Z,69.17
2018-03-02T08:23:30.509Z,67.22
2018-03-02T08:24:31.184Z,65.33
2018-03-02T08:25:31.205Z,64.29
2018-03-02T08:26:31.296Z,62.81
2018-03-02T08:27:31.269Z,61.3
2018-03-02T08:28:31.390Z,60.49
2018-03-02T08:29:31.282Z,60.39
2018-03-02T08:30:31.510Z,59.6
2018-03-02T08:31:31.800Z,59.51
2018-03-02T08:32:31.444Z,59.7
2018-03-02T08:33:31.164Z,59.95
2018-03-02T08:34:32.377Z,60.61
2018-03-02T08:35:32.504Z,60.61
2018-03-02T08:36:32.258Z,61.08
2018-03-02T08:37:32.202Z,61.55
2018-03-02T08:38:32.133Z,61.74
2018-03-02T08:39:32.193Z,62.02
2018-03-02T08:40:32.269Z,61.46
2018-03-02T08:41:32.594Z,61.4
2018-03-02T08:42:33.105Z,60.08
2018-03-02T08:43:33.502Z,59.54
2018-03-02T08:44:33.619Z,58.22
2018-03-02T08:45:33.437Z,57.46
2018-03-02T08:46:33.661Z,57.2
2018-03-02T08:47:33.331Z,56.35
2018-03-02T08:48:33.198Z,55.5
2018-03-02T08:49:33.253Z,54.87
2018-03-02T08:50:33.338Z,54.39
2018-03-02T08:51:33.453Z,53.89
2018-03-02T08:52:33.297Z,53.74
2018-03-02T08:53:33.546Z,53.83
2018-03-02T08:54:33.502Z,53.55
2018-03-02T08:55:33.438Z,53.23
2018-03-02T08:56:33.984Z,52.95
2018-03-02T08:57:34.071Z,52.79
2018-03-02T08:58:34.261Z,52.79
2018-03-02T08:59:34.277Z,52.34
2018-03-02T09:00:35.247Z,51.77
2018-03-02T09:01:34.823Z,50.99
2018-03-02T09:02:34.455Z,51.65
2018-03-02T09:03:35.071Z,51.75
2018-03-02T09:04:35.137Z,51.84
2018-03-02T09:05:35.114Z,51.62
2018-03-02T09:06:35.211Z,52.57
2018-03-02T09:07:35.496Z,52.29
2018-03-02T09:08:35.129Z,52.48
2018-03-02T09:09:35.303Z,52.67
2018-03-02T09:10:35.144Z,52.41
2018-03-02T09:11:35.810Z,51.46
2018-03-02T09:12:35.858Z,52.03
2018-03-02T09:13:35.622Z,51.91
2018-03-02T09:14:35.874Z,51.37
2018-03-02T09:15:36.008Z,51.28
2018-03-02T09:16:36.154Z,51.75
2018-03-02T09:17:36.143Z,50.82
2018-03-02T09:18:36.484Z,49.98
2018-03-02T09:19:36.541Z,49.6
2018-03-02T09:20:36.544Z,49.69
2018-03-02T09:21:36.313Z,49.95
2018-03-02T09:22:36.706Z,50.33
2018-03-02T09:23:36.730Z,50.8
2018-03-02T09:24:36.745Z,50.87
2018-03-02T09:25:36.918Z,51.62
2018-03-02T09:26:36.642Z,52.29
2018-03-02T09:27:37.010Z,52.67
2018-03-02T09:28:37.141Z,52.76
2018-03-02T09:29:37.442Z,52.76
2018-03-02T09:30:37.458Z,52.76
2018-03-02T09:31:37.206Z,52.38
2018-03-02T09:32:37.588Z,52.29
2018-03-02T09:33:37.633Z,51.81
2018-03-02T09:34:38.056Z,52.48
2018-03-02T09:35:38.213Z,52.86
2018-03-02T09:36:38.270Z,52.76
2018-03-02T09:37:38.270Z,52.41
2018-03-02T09:38:38.015Z,51.37
2018-03-02T09:39:38.398Z,51.56
2018-03-02T09:40:38.405Z,51.18
2018-03-02T09:41:38.792Z,50.61
2018-03-02T09:42:39.146Z,50.07
2018-03-02T09:43:39.604Z,49.69
2018-03-02T09:44:39.424Z,48.77
2018-03-02T09:45:39.754Z,48.36
2018-03-02T09:46:39.832Z,48.91
2018-03-02T09:47:39.936Z,49.01
2018-03-02T09:48:39.996Z,49.01
2018-03-02T09:49:40.287Z,49.38
2018-03-02T09:50:40.657Z,49.57
2018-03-02T09:51:40.687Z,49.95
2018-03-02T09:52:40.701Z,50.3
2018-03-02T09:53:41.174Z,50.61
2018-03-02T09:54:41.042Z,50.71
2018-03-02T09:55:41.432Z,50.42
2018-03-02T09:56:41.567Z,49.69
2018-03-02T09:57:41.658Z,49.12
2018-03-02T09:58:41.619Z,49.22
2018-03-02T09:59:41.681Z,48.93
2018-03-02T10:00:41.757Z,49.03
2018-03-02T10:01:42.152Z,49.03
2018-03-02T10:02:41.837Z,48.74
2018-03-02T10:03:42.139Z,49.1
2018-03-02T10:04:41.884Z,49.38
2018-03-02T10:05:42.433Z,49.48
2018-03-02T10:06:43.018Z,49.48
2018-03-02T10:07:46.238Z,49.57
2018-03-02T10:08:45.414Z,49.22
2018-03-02T10:09:42.544Z,48.91
2018-03-02T10:10:42.580Z,49.1
2018-03-02T10:11:42.323Z,49.73
2018-03-02T10:12:42.878Z,50.4
2018-03-02T10:13:42.920Z,50.4
2018-03-02T10:14:43.218Z,50.42
2018-03-02T10:15:43.215Z,50.33
2018-03-02T10:16:42.955Z,50.23
2018-03-02T10:17:43.246Z,49.95
2018-03-02T10:18:43.255Z,49.5
2018-03-02T10:19:47.429Z,48.93
2018-03-02T10:20:47.903Z,48.65
2018-03-02T10:21:43.371Z,48.18
2018-03-02T10:22:43.367Z,48.08
2018-03-02T10:23:43.379Z,48.34
2018-03-02T10:24:43.410Z,48.34
2018-03-02T10:25:43.496Z,48.72
2018-03-02T10:26:43.169Z,48.55
2018-03-02T10:27:43.477Z,48.55
2018-03-02T10:28:43.572Z,48.08
2018-03-02T10:29:43.542Z,47.44
2018-03-02T10:30:44.157Z,47.51
2018-03-02T10:31:43.915Z,47.06
2018-03-02T10:32:44.365Z,47.32
2018-03-02T10:33:44.355Z,47.42
2018-03-02T10:34:44.383Z,46.69
2018-03-02T10:35:44.458Z,46.88
2018-03-02T10:36:44.430Z,46.97
2018-03-02T10:37:44.438Z,46.31
2018-03-02T10:38:44.478Z,46.5
2018-03-02T10:39:44.209Z,47.04
2018-03-02T10:40:44.627Z,47.58
2018-03-02T10:41:44.942Z,48.34
2018-03-02T10:42:44.953Z,48.91
2018-03-02T10:43:44.989Z,49.38
2018-03-02T10:44:44.741Z,49.38
2018-03-02T10:45:45.099Z,49.19
2018-03-02T10:46:45.332Z,49.57
2018-03-02T10:47:45.428Z,49.66
2018-03-02T10:48:46.129Z,49.85
2018-03-02T10:49:45.730Z,49.85
2018-03-02T10:50:46.677Z,50.02
2018-03-02T10:51:46.449Z,50.11
2018-03-02T10:52:46.699Z,50.21
2018-03-02T10:53:46.050Z,50.68
2018-03-02T10:54:46.074Z,50.49
2018-03-02T10:55:46.648Z,50.61
2018-03-02T10:56:46.727Z,50.23
2018-03-02T10:57:46.126Z,50.04
2018-03-02T10:58:46.139Z,49.85
2018-03-02T10:59:46.150Z,49.41
2018-03-02T11:00:45.949Z,48.74
2018-03-02T11:01:46.273Z,48.55
2018-03-02T11:02:46.250Z,48.08
2018-03-02T11:03:46.620Z,47.89
2018-03-02T11:04:46.511Z,48.08
2018-03-02T11:05:46.284Z,48.08
2018-03-02T11:06:46.472Z,48.27
2018-03-02T11:07:46.718Z,47.8
2018-03-02T11:08:46.268Z,47.8
2018-03-02T11:09:46.342Z,47.61
2018-03-02T11:10:46.385Z,47.7
2018-03-02T11:11:46.760Z,48.06
2018-03-02T11:12:46.730Z,48.34
2018-03-02T11:13:46.696Z,48.63
2018-03-02T11:14:46.676Z,48.46
2018-03-02T11:15:46.598Z,48.34
2018-03-02T11:16:46.264Z,48.53
2018-03-02T11:17:46.427Z,48.82
2018-03-02T11:18:46.961Z,49.19
2018-03-02T11:19:47.036Z,49.48
2018-03-02T11:20:46.771Z,49.19
2018-03-02T11:21:47.036Z,48.84
2018-03-02T11:22:46.784Z,48.74
2018-03-02T11:23:47.136Z,48.18
2018-03-02T11:24:47.108Z,47.7
2018-03-02T11:25:46.819Z,47.53
2018-03-02T11:26:47.158Z,46.97
2018-03-02T11:27:47.152Z,46.12
2018-03-02T11:28:47.228Z,46.4
2018-03-02T11:29:47.184Z,46.69
2018-03-02T11:30:47.321Z,46.88
2018-03-02T11:31:47.593Z,46.97
2018-03-02T11:32:47.354Z,46.85
2018-03-02T11:33:47.343Z,47.13
2018-03-02T11:34:47.708Z,47.51
2018-03-02T11:35:47.666Z,47.68
2018-03-02T11:36:47.696Z,48.53
2018-03-02T11:37:47.559Z,48.63
2018-03-02T11:38:48.131Z,48.08
2018-03-02T11:39:47.884Z,48.08
2018-03-02T11:40:47.921Z,47.7
2018-03-02T11:41:48.529Z,47.77
2018-03-02T11:42:48.533Z,47.99
2018-03-02T11:43:49.251Z,48.18
2018-03-02T11:44:49.444Z,47.89
2018-03-02T11:45:49.092Z,47.8
2018-03-02T11:46:48.751Z,47.61
2018-03-02T11:47:48.852Z,47.51
2018-03-02T11:48:49.806Z,46.69
2018-03-02T11:49:48.904Z,46.97
2018-03-02T11:50:49.581Z,46.31
2018-03-02T11:51:49.719Z,45.55
2018-03-02T11:52:50.486Z,45.55
2018-03-02T11:53:50.446Z,46
2018-03-02T11:54:50.444Z,46.92
2018-03-02T11:55:50.466Z,47.68
2018-03-02T11:56:51.193Z,48.34
2018-03-02T11:57:51.054Z,48.91
2018-03-02T11:58:51.620Z,49.1
2018-03-02T11:59:51.665Z,49.1
2018-03-02T12:00:51.573Z,49.57
2018-03-02T12:01:51.789Z,49.48
2018-03-02T12:02:51.641Z,49.57
2018-03-02T12:03:51.737Z,49.48
2018-03-02T12:04:52.021Z,49.57
2018-03-02T12:05:51.784Z,49.73
2018-03-02T12:06:52.255Z,50.3
2018-03-02T12:07:51.944Z,50.75
2018-03-02T12:08:52.233Z,51.41
2018-03-02T12:09:52.314Z,51.69
2018-03-02T12:10:58.124Z,52.17
2018-03-02T12:11:52.310Z,53.11
2018-03-02T12:12:52.318Z,53.65
2018-03-02T12:13:53.042Z,54.22
2018-03-02T12:14:53.342Z,55.07
2018-03-02T12:15:53.078Z,55.54
2018-03-02T12:16:53.541Z,56.11
2018-03-02T12:17:53.390Z,56.08
2018-03-02T12:18:53.114Z,57.03
2018-03-02T12:19:53.483Z,57.97
2018-03-02T12:20:53.461Z,58.44
2018-03-02T12:21:53.228Z,59.1
2018-03-02T12:22:53.880Z,59.48
2018-03-02T12:23:53.633Z,60.21
2018-03-02T12:24:53.891Z,60.39
2018-03-02T12:25:53.925Z,60.49
2018-03-02T12:26:53.989Z,60.49
2018-03-02T12:27:54.284Z,60.77
2018-03-02T12:28:54.354Z,60.96
2018-03-02T12:29:54.611Z,60.96
2018-03-02T12:30:54.713Z,61.24
2018-03-02T12:31:54.640Z,61.33
2018-03-02T12:32:54.647Z,61.24
2018-03-02T12:33:54.616Z,61.52
2018-03-02T12:34:54.938Z,61.99
2018-03-02T12:35:54.932Z,62.09
2018-03-02T12:36:54.979Z,62.09
2018-03-02T12:37:55.048Z,62.18
2018-03-02T12:38:54.714Z,62.47
2018-03-02T12:39:55.276Z,62.37
2018-03-02T12:40:55.067Z,62.37
2018-03-02T12:41:55.318Z,61.99
2018-03-02T12:42:55.402Z,62.09
2018-03-02T12:43:55.173Z,61.99
2018-03-02T12:44:55.434Z,62.09
2018-03-02T12:45:55.507Z,62.28
2018-03-02T12:46:55.532Z,61.9
2018-03-02T12:47:55.858Z,62.56
2018-03-02T12:48:55.900Z,62.47
2018-03-02T12:49:56.016Z,62.47
2018-03-02T12:50:55.941Z,62.56
2018-03-02T12:51:56.540Z,62.28
2018-03-02T12:52:56.414Z,62.09
2018-03-02T12:53:56.715Z,61.9
2018-03-02T12:54:56.407Z,61.8
2018-03-02T12:55:56.560Z,62.18
2018-03-02T12:56:56.823Z,62.09
2018-03-02T12:57:56.837Z,62.09
2018-03-02T12:58:56.881Z,62.18
2018-03-02T12:59:57.151Z,61.9
2018-03-02T13:00:56.936Z,61.8
2018-03-02T13:01:57.109Z,61.8
2018-03-02T13:02:57.360Z,61.8
2018-03-02T13:03:57.611Z,61.99
2018-03-02T13:04:57.657Z,61.9
2018-03-02T13:05:57.795Z,61.9
2018-03-02T13:06:57.689Z,62.09
2018-03-02T13:07:57.699Z,61.9
2018-03-02T13:08:58.330Z,62.66
2018-03-02T13:09:58.162Z,62.47
2018-03-02T13:10:58.174Z,62.37
2018-03-02T13:11:58.217Z,62.47
2018-03-02T13:12:58.256Z,62.18
2018-03-02T13:13:58.588Z,62.66
2018-03-02T13:14:58.926Z,62.56
2018-03-02T13:15:58.678Z,62.66
2018-03-02T13:16:58.976Z,62.66
2018-03-02T13:17:58.978Z,62.56
2018-03-02T13:18:58.723Z,62.75
2018-03-02T13:19:59.059Z,62.66
2018-03-02T13:20:59.085Z,62.28
2018-03-02T13:21:59.189Z,61.99
2018-03-02T13:22:59.123Z,62.37
2018-03-02T13:23:59.305Z,62.09
2018-03-02T13:24:59.280Z,62.56
2018-03-02T13:25:59.996Z,62.75
2018-03-02T13:26:59.219Z,62.75
2018-03-02T13:27:59.415Z,62.75
2018-03-02T13:28:59.537Z,62.66
2018-03-02T13:29:59.436Z,62.47
2018-03-02T13:30:59.198Z,62.18
2018-03-02T13:31:59.809Z,62.47
2018-03-02T13:32:59.568Z,62.75
2018-03-02T13:33:59.715Z,62.84
2018-03-02T13:34:59.686Z,62.37
2018-03-02T13:35:59.721Z,62.56
2018-03-02T13:36:59.774Z,62.66
2018-03-02T13:37:59.454Z,62.75
2018-03-02T13:38:59.747Z,62.84
2018-03-02T13:39:59.477Z,62.66
2018-03-02T13:40:59.885Z,62.84
2018-03-02T13:42:00.177Z,62.56
2018-03-02T13:42:59.934Z,62.66
2018-03-02T13:44:00.273Z,62.56
2018-03-02T13:44:59.998Z,62.37
2018-03-02T13:46:00.292Z,62.47
2018-03-02T13:47:00.370Z,62.66
2018-03-02T13:48:00.563Z,62.75
2018-03-02T13:49:00.327Z,62.66
2018-03-02T13:50:00.371Z,62.75
2018-03-02T13:51:00.640Z,62.56
2018-03-02T13:52:00.719Z,62.84
2018-03-02T13:53:00.735Z,62.84
2018-03-02T13:54:01.088Z,62.94
2018-03-02T13:55:01.512Z,63.03
2018-03-02T13:56:01.098Z,62.94
2018-03-02T13:57:01.213Z,62.75
2018-03-02T13:58:01.643Z,63.22
2018-03-02T13:59:01.931Z,63.13
2018-03-02T14:00:14.881Z,63.51
2018-03-02T14:01:01.941Z,63.32
2018-03-02T14:02:02.199Z,63.22
2018-03-02T14:03:02.351Z,63.22
2018-03-02T14:04:02.521Z,63.32
2018-03-02T14:05:02.355Z,63.13
2018-03-02T14:06:02.369Z,63.22
2018-03-02T14:07:02.669Z,63.03
2018-03-02T14:08:02.654Z,63.22
2018-03-02T14:09:02.582Z,63.13
2018-03-02T14:10:02.872Z,63.7
2018-03-02T14:11:02.891Z,63.7
2018-03-02T14:12:02.718Z,63.7
2018-03-02T14:13:03.061Z,63.13
2018-03-02T14:14:03.513Z,63.32
2018-03-02T14:15:03.729Z,63.51
2018-03-02T14:16:03.493Z,63.6
2018-03-02T14:17:03.432Z,63.32
2018-03-02T14:18:03.598Z,64.07
2018-03-02T14:19:03.466Z,64.07
2018-03-02T14:20:03.588Z,63.89
2018-03-02T14:21:03.871Z,63.89
2018-03-02T14:22:04.258Z,64.17
2018-03-02T14:23:04.309Z,64.17
2018-03-02T14:24:04.758Z,64.17
2018-03-02T14:25:05.266Z,63.89
2018-03-02T14:26:05.123Z,64.17
2018-03-02T14:27:05.411Z,63.89
2018-03-02T14:28:05.821Z,63.98
2018-03-02T14:29:05.937Z,64.26
2018-03-02T14:30:06.455Z,64.17
2018-03-02T14:31:06.331Z,64.45
2018-03-02T14:32:06.357Z,64.45
2018-03-02T14:33:06.380Z,64.45
2018-03-02T14:34:06.449Z,65.01
2018-03-02T14:35:06.548Z,64.64
2018-03-02T14:36:06.374Z,64.54
2018-03-02T14:37:06.698Z,64.45
2018-03-02T14:38:06.703Z,64.36
2018-03-02T14:39:06.700Z,64.45
2018-03-02T14:40:07.224Z,64.45
2018-03-02T14:41:07.167Z,64.54
2018-03-02T14:42:06.936Z,64.54
2018-03-02T14:43:07.598Z,64.64
2018-03-02T14:44:07.322Z,64.45
2018-03-02T14:45:07.636Z,64.73
2018-03-02T14:46:07.620Z,64.92
2018-03-02T14:47:07.779Z,64.64
2018-03-02T14:48:07.739Z,64.64
2018-03-02T14:49:08.113Z,65.2
2018-03-02T14:50:08.394Z,64.92
2018-03-02T14:51:08.528Z,65.2
2018-03-02T14:52:08.712Z,65.11
2018-03-02T14:53:08.689Z,65.2
2018-03-02T14:54:08.575Z,65.01
2018-03-02T14:55:08.447Z,65.2
2018-03-02T14:56:09.129Z,65.3
2018-03-02T14:57:09.319Z,65.11
2018-03-02T14:58:09.304Z,65.11
2018-03-02T14:59:09.565Z,65.2
2018-03-02T15:00:15.997Z,65.3
2018-03-02T15:01:16.463Z,65.11
2018-03-02T15:02:16.175Z,65.01
2018-03-02T15:03:17.504Z,65.01
2018-03-02T15:04:17.155Z,65.11
2018-03-02T15:05:16.816Z,65.2
2018-03-02T15:06:17.146Z,65.2
2018-03-02T15:07:17.214Z,64.92
2018-03-02T15:08:17.203Z,65.2
2018-03-02T15:09:17.354Z,65.2
2018-03-02T15:10:17.925Z,65.11
2018-03-02T15:11:17.577Z,65.3
2018-03-02T15:12:18.023Z,65.11
2018-03-02T15:13:18.471Z,65.2
2018-03-02T15:14:18.363Z,65.11
2018-03-02T15:15:18.678Z,65.2
2018-03-02T15:16:18.645Z,65.48
2018-03-02T15:17:18.862Z,65.11
2018-03-02T15:18:18.908Z,65.11
2018-03-02T15:19:20.343Z,65.11
2018-03-02T15:20:19.776Z,65.3
2018-03-02T15:21:19.784Z,65.11
2018-03-02T15:22:19.884Z,65.2
2018-03-02T15:23:20.314Z,65.11
2018-03-02T15:24:20.180Z,65.01
2018-03-02T15:25:19.597Z,65.01
2018-03-02T15:26:20.159Z,65.01
2018-03-02T15:27:20.461Z,65.01
2018-03-02T15:28:20.159Z,65.2
2018-03-02T15:29:20.833Z,65.11
2018-03-02T15:30:20.410Z,64.92
2018-03-02T15:31:21.624Z,65.2
2018-03-02T15:32:21.403Z,65.01
2018-03-02T15:33:21.184Z,65.2
2018-03-02T15:34:21.895Z,65.11
2018-03-02T15:35:21.337Z,64.92
2018-03-02T15:36:21.067Z,65.2
2018-03-02T15:37:21.286Z,65.11
2018-03-02T15:38:21.619Z,65.2
2018-03-02T15:39:21.542Z,65.2
2018-03-02T15:40:21.270Z,65.2
2018-03-02T15:41:21.364Z,65.11
2018-03-02T15:42:21.390Z,65.11
2018-03-02T15:43:21.663Z,65.11
2018-03-02T15:44:21.339Z,65.01
2018-03-02T15:45:21.618Z,65.01
2018-03-02T15:46:21.604Z,64.64
2018-03-02T15:47:22.441Z,64.45
2018-03-02T15:48:22.685Z,64.73
2018-03-02T15:49:22.746Z,64.45
2018-03-02T15:50:22.511Z,64.54
2018-03-02T15:51:22.445Z,64.36
2018-03-02T15:52:22.790Z,64.36
2018-03-02T15:53:22.595Z,64.26
2018-03-02T15:54:22.994Z,64.54
2018-03-02T15:55:22.812Z,64.45
2018-03-02T15:56:23.050Z,64.54
2018-03-02T15:57:22.945Z,64.64
2018-03-02T15:58:22.896Z,64.45
2018-03-02T15:59:22.707Z,64.73
2018-03-02T16:00:23.081Z,65.01
2018-03-02T16:01:23.047Z,64.83
2018-03-02T16:02:23.008Z,64.98
2018-03-02T16:03:22.019Z,64.89
2018-03-02T16:04:22.447Z,64.98
2018-03-02T16:05:23.091Z,64.98
2018-03-02T16:06:22.391Z,64.89
2018-03-02T16:07:22.099Z,65.45
2018-03-02T16:08:22.666Z,65.08
2018-03-02T16:09:22.722Z,65.26
2018-03-02T16:10:22.710Z,65.36
2018-03-02T16:11:22.809Z,65.64
2018-03-02T16:12:22.792Z,65.73
2018-03-02T16:13:22.835Z,65.73
2018-03-02T16:14:22.824Z,66.11
2018-03-02T16:15:22.853Z,66.11
2018-03-02T16:16:23.185Z,66.3
2018-03-02T16:17:22.878Z,66.4
2018-03-02T16:18:23.188Z,66.68
2018-03-02T16:19:23.243Z,66.77
2018-03-02T16:20:23.323Z,66.68
2018-03-02T16:21:23.371Z,67.25
2018-03-02T16:22:23.043Z,67.15
2018-03-02T16:23:23.027Z,67.06
2018-03-02T16:24:23.115Z,67.06
2018-03-02T16:25:23.386Z,67.06
2018-03-02T16:26:23.723Z,66.87
2018-03-02T16:27:23.716Z,67.06
2018-03-02T16:28:23.824Z,67.25
2018-03-02T16:29:23.821Z,67.06
2018-03-02T16:30:23.674Z,67.06
2018-03-02T16:31:23.523Z,67.15
2018-03-02T16:32:24.075Z,66.87
2018-03-02T16:33:24.505Z,66.68
2018-03-02T16:34:24.513Z,67.25
2018-03-02T16:35:25.091Z,67.06
2018-03-02T16:36:25.123Z,67.06
2018-03-02T16:37:25.119Z,67.06
2018-03-02T16:38:25.164Z,67.53
2018-03-02T16:39:25.219Z,67.06
2018-03-02T16:40:25.224Z,67.25
2018-03-02T16:41:25.259Z,67.53
2018-03-02T16:42:25.558Z,67.62
2018-03-02T16:43:25.313Z,67.81
2018-03-02T16:44:25.608Z,68.1
2018-03-02T16:45:25.911Z,68.19
2018-03-02T16:46:25.928Z,68.38
2018-03-02T16:47:25.648Z,68.66
2018-03-02T16:48:25.992Z,68.19
2018-03-02T16:49:25.696Z,68.29
2018-03-02T16:50:26.110Z,67.91
2018-03-02T16:51:26.118Z,67.81
2018-03-02T16:52:25.890Z,67.53
2018-03-02T16:53:26.186Z,67.72
2018-03-02T16:54:26.183Z,67.53
2018-03-02T16:55:26.216Z,67.62
2018-03-02T16:56:26.237Z,67.53
2018-03-02T16:57:26.328Z,67.81
2018-03-02T16:58:26.063Z,68
2018-03-02T16:59:26.356Z,68.1
2018-03-02T17:00:26.065Z,68.29
2018-03-02T17:01:26.448Z,68.57
2018-03-02T17:02:26.870Z,68.29
2018-03-02T17:03:27.002Z,68.19
2018-03-02T17:04:27.386Z,68.19
2018-03-02T17:05:27.512Z,68.29
2018-03-02T17:06:28.122Z,68.1
2018-03-02T17:07:27.853Z,68.47
2018-03-02T17:08:28.451Z,68.38
2018-03-02T17:09:28.150Z,68.29
2018-03-02T17:10:28.544Z,68.47
2018-03-02T17:11:28.344Z,68.85
2018-03-02T17:12:28.633Z,68.76
2018-03-02T17:13:28.786Z,68.66
2018-03-02T17:14:29.108Z,68.95
2018-03-02T17:15:29.241Z,68.95
2018-03-02T17:16:29.603Z,69.04
2018-03-02T17:17:30.011Z,68.85
2018-03-02T17:18:30.147Z,69.13
2018-03-02T17:19:30.447Z,68.91
2018-03-02T17:20:30.444Z,68.95
2018-03-02T17:21:30.849Z,69.04
2018-03-02T17:22:30.747Z,68.95
2018-03-02T17:23:31.121Z,68.95
2018-03-02T17:24:31.260Z,68.95
2018-03-02T17:25:30.998Z,69.13
2018-03-02T17:26:31.594Z,69
2018-03-02T17:27:31.519Z,68.85
2018-03-02T17:28:31.680Z,68.76
2018-03-02T17:29:31.540Z,68.66
2018-03-02T17:30:31.878Z,68.95
2018-03-02T17:31:32.420Z,68.76
2018-03-02T17:32:32.156Z,68.85
2018-03-02T17:33:32.257Z,68.82
2018-03-02T17:34:32.286Z,68.91
2018-03-02T17:35:31.986Z,68.82
2018-03-02T17:36:32.365Z,68.72
2018-03-02T17:37:32.508Z,68.91
2018-03-02T17:38:32.956Z,68.95
2018-03-02T17:39:33.271Z,68.82
2018-03-02T17:40:33.126Z,68.72
2018-03-02T17:41:33.733Z,68.72
2018-03-02T17:42:33.547Z,68.82
2018-03-02T17:43:33.646Z,68.91
2018-03-02T17:44:34.618Z,69
2018-03-02T17:45:34.613Z,68.82
2018-03-02T17:46:34.263Z,68.82
2018-03-02T17:47:34.335Z,69.04
2018-03-02T17:48:34.786Z,69
2018-03-02T17:49:34.329Z,68.63
2018-03-02T17:50:34.116Z,69
2018-03-02T17:51:34.529Z,68.72
2018-03-02T17:52:34.847Z,68.82
2018-03-02T17:53:34.831Z,68.53
2018-03-02T17:54:35.951Z,68.44
2018-03-02T17:55:35.373Z,68.57
2018-03-02T17:56:35.634Z,68.72
2018-03-02T17:57:36.162Z,68.72
2018-03-02T17:58:36.845Z,68.91
2018-03-02T17:59:36.435Z,68.72
2018-03-02T18:00:36.787Z,68.63
2018-03-02T18:01:36.747Z,68.82
2018-03-02T18:02:37.055Z,68.72
2018-03-02T18:03:36.932Z,69
2018-03-02T18:04:37.776Z,68.91
2018-03-02T18:05:38.356Z,68.82
2018-03-02T18:06:37.379Z,69.19
2018-03-02T18:07:36.588Z,69
2018-03-02T18:08:36.540Z,68.91
2018-03-02T18:09:36.769Z,69.29
2018-03-02T18:10:36.816Z,69.29
2018-03-02T18:11:37.158Z,69.57
2018-03-02T18:12:36.971Z,69.67
2018-03-02T18:13:36.954Z,69.29
2018-03-02T18:14:37.800Z,69.19
2018-03-02T18:15:38.075Z,69.19
2018-03-02T18:16:37.825Z,69.1
2018-03-02T18:17:53.073Z,69.38
2018-03-02T18:18:37.799Z,69.57
2018-03-02T18:19:36.903Z,68.91
2018-03-02T18:20:37.946Z,69
2018-03-02T18:21:38.633Z,69
2018-03-02T18:22:37.840Z,69
2018-03-02T18:23:37.324Z,69.29
2018-03-02T18:24:37.798Z,68.91
2018-03-02T18:25:37.578Z,69.19
2018-03-02T18:26:37.831Z,69.1
2018-03-02T18:27:38.559Z,69.38
2018-03-02T18:28:37.879Z,69.29
2018-03-02T18:29:37.478Z,69.29
2018-03-02T18:30:37.953Z,69.38
2018-03-02T18:31:37.636Z,69
2018-03-02T18:32:37.642Z,69.67
2018-03-02T18:33:37.238Z,69.1
2018-03-02T18:34:37.755Z,69
